Terminal Aerodrome Forecast
Issued by NWS

Current Version | Previous Version | Text Only | Print | Product List | Glossary On
Versions: 1 2 3 4 5 6 7 8 9 10 11 12 13 14
000
FTUS43 KBIS 231730
TAFJMS
TAF
KJMS 231730Z 2318/2418 35009KT P6SM SCT050
     FM232300 04007KT P6SM SKC
     FM240200 10005KT P6SM SKC
     FM240800 16005KT P6SM FEW090 FEW250
     FM241300 17009KT P6SM FEW090 FEW250=

USA.gov is the U.S. government's official web portal to all federal, state and local government web resources and services.